createdAt,value
2023-03-07T00:00:15.471Z,-2.83
2023-03-07T00:03:03.278Z,-2.83
2023-03-07T00:05:30.478Z,-3.00
2023-03-07T00:07:58.882Z,-3.03
2023-03-07T00:10:26.268Z,-2.98
2023-03-07T00:12:53.528Z,-2.97
2023-03-07T00:15:20.574Z,-3.09
2023-03-07T00:17:47.858Z,-3.21
2023-03-07T00:20:15.502Z,-2.95
2023-03-07T00:22:44.341Z,-3.33
2023-03-07T00:25:11.366Z,-3.25
2023-03-07T00:27:38.938Z,-3.25
2023-03-07T00:30:06.421Z,-3.21
2023-03-07T00:32:33.989Z,-3.22
2023-03-07T00:35:01.642Z,-3.21
2023-03-07T00:37:30.811Z,-3.11
2023-03-07T00:39:57.834Z,-3.25
2023-03-07T00:42:25.208Z,-3.22
2023-03-07T00:44:52.206Z,-3.28
2023-03-07T00:47:19.617Z,-3.35
2023-03-07T00:49:47.002Z,-3.30
2023-03-07T00:52:14.674Z,-3.35
2023-03-07T00:54:41.696Z,-3.19
2023-03-07T00:57:09.396Z,-3.25
2023-03-07T00:59:36.655Z,-3.29
2023-03-07T01:02:04.074Z,-3.26
2023-03-07T01:04:31.216Z,-3.31
2023-03-07T01:06:58.482Z,-3.25
2023-03-07T01:09:25.736Z,-3.29
2023-03-07T01:11:53.556Z,-3.34
2023-03-07T01:14:20.600Z,-3.40
2023-03-07T01:16:48.234Z,-3.45
2023-03-07T01:19:18.480Z,-3.39
2023-03-07T01:21:46.037Z,-3.46
2023-03-07T01:24:16.149Z,-3.34
2023-03-07T01:26:43.931Z,-3.23
2023-03-07T01:29:12.094Z,-3.38
2023-03-07T01:31:39.491Z,-3.34
2023-03-07T01:34:07.397Z,-3.39
2023-03-07T01:36:37.400Z,-3.31
2023-03-07T01:39:16.895Z,-3.47
2023-03-07T01:42:20.901Z,-3.36
2023-03-07T01:45:33.528Z,-3.38
2023-03-07T01:48:01.257Z,-3.25
2023-03-07T01:50:29.235Z,-3.22
2023-03-07T01:53:00.671Z,-3.23
2023-03-07T01:55:33.600Z,-3.11
2023-03-07T01:58:13.017Z,-3.39
2023-03-07T02:00:41.865Z,-3.39
2023-03-07T02:03:22.046Z,-3.11
2023-03-07T02:06:05.303Z,-3.27
2023-03-07T02:08:35.031Z,-3.37
2023-03-07T02:11:02.268Z,-3.33
2023-03-07T02:13:29.738Z,-3.29
2023-03-07T02:16:00.122Z,-3.46
2023-03-07T02:18:32.160Z,-3.33
2023-03-07T02:21:04.377Z,-3.46
2023-03-07T02:23:39.834Z,-3.46
2023-03-07T02:26:16.143Z,-3.22
2023-03-07T02:28:45.950Z,-3.50
2023-03-07T02:31:13.319Z,-3.39
2023-03-07T02:33:41.697Z,-3.39
2023-03-07T02:36:13.092Z,-3.47
2023-03-07T02:38:49.051Z,-3.32
2023-03-07T02:41:20.878Z,-3.28
2023-03-07T02:43:48.245Z,-3.36
2023-03-07T02:46:15.816Z,-3.45
2023-03-07T02:48:43.188Z,-3.47
2023-03-07T02:51:12.049Z,-3.42
2023-03-07T02:53:40.148Z,-3.41
2023-03-07T02:56:07.774Z,-3.36
2023-03-07T02:58:35.179Z,-3.52
2023-03-07T03:01:02.209Z,-3.45
2023-03-07T03:03:29.522Z,-3.48
2023-03-07T03:05:56.556Z,-3.56
2023-03-07T03:08:24.216Z,-3.36
2023-03-07T03:10:54.930Z,-3.35
2023-03-07T03:13:24.985Z,-3.56
2023-03-07T03:15:59.707Z,-3.43
2023-03-07T03:18:31.058Z,-3.66
2023-03-07T03:20:59.503Z,-3.68
2023-03-07T03:23:28.357Z,-3.34
2023-03-07T03:26:00.537Z,-3.74
2023-03-07T03:28:31.220Z,-3.84
2023-03-07T03:31:00.446Z,-3.56
2023-03-07T03:33:29.296Z,-3.96
2023-03-07T03:35:58.612Z,-3.71
2023-03-07T03:38:27.245Z,-3.71
2023-03-07T03:40:55.876Z,-3.86
2023-03-07T03:43:23.204Z,-4.10
2023-03-07T03:45:57.678Z,-4.02
2023-03-07T03:48:28.065Z,-4.11
2023-03-07T03:51:10.286Z,-4.01
2023-03-07T03:53:39.659Z,-4.08
2023-03-07T03:56:12.273Z,-4.05
2023-03-07T03:58:40.239Z,-4.11
2023-03-07T04:01:11.656Z,-4.04
2023-03-07T04:03:42.100Z,-3.74
2023-03-07T04:06:12.192Z,-3.99
2023-03-07T04:08:40.487Z,-4.21
2023-03-07T04:11:07.956Z,-3.97
2023-03-07T04:13:36.569Z,-3.86
2023-03-07T04:16:04.403Z,-4.06
2023-03-07T04:18:32.016Z,-3.77
2023-03-07T04:20:59.319Z,-4.05
2023-03-07T04:23:28.900Z,-4.01
2023-03-07T04:25:58.278Z,-3.78
2023-03-07T04:28:29.075Z,-3.73
2023-03-07T04:30:56.439Z,-3.78
2023-03-07T04:33:27.301Z,-4.10
2023-03-07T04:35:54.369Z,-3.84
2023-03-07T04:38:21.652Z,-3.89
2023-03-07T04:40:48.698Z,-3.94
2023-03-07T04:43:16.614Z,-3.87
2023-03-07T04:45:43.743Z,-3.79
2023-03-07T04:48:11.186Z,-4.04
2023-03-07T04:50:38.226Z,-4.19
2023-03-07T04:53:05.678Z,-4.16
2023-03-07T04:55:32.838Z,-3.89
2023-03-07T04:58:00.237Z,-4.02
2023-03-07T05:00:27.413Z,-3.81
2023-03-07T05:02:58.307Z,-4.33
2023-03-07T05:05:25.437Z,-4.30
2023-03-07T05:07:52.931Z,-4.05
2023-03-07T05:10:20.122Z,-3.96
2023-03-07T05:12:47.482Z,-4.14
2023-03-07T05:15:14.739Z,-4.21
2023-03-07T05:17:42.030Z,-4.14
2023-03-07T05:20:10.886Z,-3.94
2023-03-07T05:22:38.582Z,-4.02
2023-03-07T05:25:06.763Z,-3.89
2023-03-07T05:27:35.088Z,-3.89
2023-03-07T05:30:02.383Z,-3.87
2023-03-07T05:32:30.622Z,-3.59
2023-03-07T05:34:58.115Z,-3.83
2023-03-07T05:37:26.011Z,-4.00
2023-03-07T05:39:53.302Z,-3.96
2023-03-07T05:42:21.396Z,-3.87
2023-03-07T05:44:49.342Z,-3.81
2023-03-07T05:47:17.352Z,-3.73
2023-03-07T05:49:44.482Z,-3.74
2023-03-07T05:52:13.238Z,-3.59
2023-03-07T05:54:40.332Z,-3.61
2023-03-07T05:57:07.759Z,-3.72
2023-03-07T05:59:35.024Z,-3.63
2023-03-07T06:02:02.698Z,-3.59
2023-03-07T06:04:29.898Z,-3.38
2023-03-07T06:06:57.768Z,-3.29
2023-03-07T06:09:25.954Z,-3.27
2023-03-07T06:11:55.771Z,-3.21
2023-03-07T06:14:22.915Z,-3.37
2023-03-07T06:16:50.385Z,-3.06
2023-03-07T06:19:17.983Z,-3.13
2023-03-07T06:21:48.088Z,-2.99
2023-03-07T06:24:15.270Z,-3.02
2023-03-07T06:26:43.780Z,-2.87
2023-03-07T06:29:11.101Z,-2.86
2023-03-07T06:31:39.254Z,-2.85
2023-03-07T06:34:08.614Z,-2.88
2023-03-07T06:36:36.485Z,-2.76
2023-03-07T06:39:04.621Z,-2.52
2023-03-07T06:41:32.212Z,-2.55
2023-03-07T06:44:01.747Z,-2.51
2023-03-07T06:46:32.445Z,-2.35
2023-03-07T06:49:03.585Z,-2.25
2023-03-07T06:51:31.181Z,-2.21
2023-03-07T06:53:59.352Z,-2.30
2023-03-07T06:56:29.850Z,-2.04
2023-03-07T06:58:58.155Z,-1.94
2023-03-07T07:01:26.361Z,-2.01
2023-03-07T07:03:55.454Z,-1.62
2023-03-07T07:06:23.556Z,-1.76
2023-03-07T07:08:54.526Z,-1.74
2023-03-07T07:11:23.628Z,-1.50
2023-03-07T07:13:51.318Z,-1.47
2023-03-07T07:16:20.739Z,-1.23
2023-03-07T07:18:51.972Z,-1.28
2023-03-07T07:21:19.932Z,-1.40
2023-03-07T07:23:47.598Z,-1.36
2023-03-07T07:26:15.692Z,-1.59
2023-03-07T07:28:43.008Z,-1.34
2023-03-07T07:31:10.692Z,-1.29
2023-03-07T07:33:38.408Z,-1.17
2023-03-07T07:36:08.066Z,-1.10
2023-03-07T07:38:36.382Z,-0.63
2023-03-07T07:41:03.966Z,-0.53
2023-03-07T07:43:32.202Z,-0.58
2023-03-07T07:46:10.002Z,-0.43
2023-03-07T07:48:37.452Z,-0.99
2023-03-07T07:51:05.632Z,-0.96
2023-03-07T07:53:36.463Z,-1.04
2023-03-07T07:56:04.255Z,-0.96
2023-03-07T07:58:31.523Z,-0.89
2023-03-07T08:00:59.551Z,-0.81
2023-03-07T08:03:27.114Z,-1.05
2023-03-07T08:05:54.646Z,-1.05
2023-03-07T08:08:21.797Z,-1.10
2023-03-07T08:10:49.293Z,-1.01
2023-03-07T08:13:17.935Z,-1.04
2023-03-07T08:15:45.502Z,-0.92
2023-03-07T08:18:12.856Z,-0.90
2023-03-07T08:20:41.426Z,-0.92
2023-03-07T08:23:08.595Z,-0.99
2023-03-07T08:25:36.043Z,-1.01
2023-03-07T08:28:05.410Z,-0.95
2023-03-07T08:30:37.125Z,-0.88
2023-03-07T08:33:04.412Z,-0.77
2023-03-07T08:35:32.172Z,-0.82
2023-03-07T08:38:00.596Z,-0.76
2023-03-07T08:40:29.672Z,-0.51
2023-03-07T08:42:59.260Z,-0.67
2023-03-07T08:45:26.930Z,-0.67
2023-03-07T08:47:55.557Z,-0.64
2023-03-07T08:50:29.911Z,-0.53
2023-03-07T08:52:57.710Z,-0.72
2023-03-07T08:55:25.200Z,-0.89
2023-03-07T08:57:52.346Z,-0.72
2023-03-07T09:00:20.015Z,-0.40
2023-03-07T09:02:47.311Z,-0.70
2023-03-07T09:05:14.996Z,-0.81
2023-03-07T09:07:43.109Z,-0.88
2023-03-07T09:10:11.720Z,-0.62
2023-03-07T09:12:38.934Z,-0.71
2023-03-07T09:15:06.946Z,-0.73
2023-03-07T09:17:34.256Z,-0.69
2023-03-07T09:20:01.854Z,-1.11
2023-03-07T09:22:29.002Z,-0.94
2023-03-07T09:24:56.766Z,-1.06
2023-03-07T09:27:24.257Z,-1.17
2023-03-07T09:29:51.756Z,-1.35
2023-03-07T09:32:18.931Z,-1.19
2023-03-07T09:34:46.561Z,-1.10
2023-03-07T09:37:14.051Z,-1.27
2023-03-07T09:39:41.633Z,-1.27
2023-03-07T09:42:27.920Z,-1.19
2023-03-07T09:45:31.897Z,-1.13
2023-03-07T09:48:14.640Z,-1.30
2023-03-07T09:50:50.160Z,-1.45
2023-03-07T09:53:41.645Z,-1.28
2023-03-07T09:56:17.066Z,-1.23
2023-03-07T09:58:53.941Z,-1.39
2023-03-07T10:01:27.218Z,-1.38
2023-03-07T10:04:02.149Z,-1.31
2023-03-07T10:06:38.652Z,-1.23
2023-03-07T10:09:13.331Z,-1.33
2023-03-07T10:12:12.519Z,-1.12
2023-03-07T10:15:04.272Z,-1.05
2023-03-07T10:17:48.215Z,-1.13
2023-03-07T10:20:54.102Z,-0.85
2023-03-07T10:23:58.633Z,-1.01
2023-03-07T10:26:57.622Z,-1.03
2023-03-07T10:29:35.340Z,-0.81
2023-03-07T10:32:43.885Z,-0.60
2023-03-07T10:35:13.233Z,-0.89
2023-03-07T10:37:57.683Z,-0.78
2023-03-07T10:40:33.293Z,-0.75
2023-03-07T10:43:09.475Z,-0.87
2023-03-07T10:45:41.326Z,-0.47
2023-03-07T10:48:19.163Z,-0.60
2023-03-07T10:50:53.928Z,-0.58
2023-03-07T10:53:33.769Z,-0.45
2023-03-07T10:56:09.567Z,-0.55
2023-03-07T10:59:00.334Z,-0.50
2023-03-07T11:01:29.403Z,-0.50
2023-03-07T11:04:19.902Z,-0.40
2023-03-07T11:06:51.422Z,-0.29
2023-03-07T11:09:23.894Z,-0.49
2023-03-07T11:11:54.456Z,-0.24
2023-03-07T11:14:22.573Z,-0.22
2023-03-07T11:17:01.719Z,-0.25
2023-03-07T11:19:37.749Z,-0.38
2023-03-07T11:22:20.599Z,-0.25
2023-03-07T11:24:56.851Z,-0.39
2023-03-07T11:27:35.049Z,-0.40
2023-03-07T11:30:23.850Z,-0.08
2023-03-07T11:33:11.156Z,-0.08
2023-03-07T11:35:53.588Z,-0.15
2023-03-07T11:38:52.580Z,0.03
2023-03-07T11:41:28.713Z,0.12
2023-03-07T11:44:04.118Z,0.24
2023-03-07T11:46:50.706Z,0.17
2023-03-07T11:49:34.612Z,0.35
2023-03-07T11:52:22.040Z,0.53
2023-03-07T11:55:31.148Z,0.56
2023-03-07T11:58:36.152Z,0.58
2023-03-07T12:01:29.073Z,0.60
2023-03-07T12:04:41.684Z,0.57
2023-03-07T12:07:31.007Z,0.81
2023-03-07T12:10:05.600Z,0.77
2023-03-07T12:12:33.042Z,0.96
2023-03-07T12:15:24.788Z,0.93
2023-03-07T12:18:15.933Z,0.93
2023-03-07T12:21:10.973Z,1.03
2023-03-07T12:23:47.169Z,0.94
2023-03-07T12:27:01.739Z,0.94
2023-03-07T12:29:38.475Z,1.20
2023-03-07T12:32:34.124Z,1.23
2023-03-07T12:35:26.163Z,1.19
2023-03-07T12:38:02.667Z,1.20
2023-03-07T12:40:40.155Z,1.12
2023-03-07T12:43:37.773Z,1.33
2023-03-07T12:46:22.839Z,1.27
2023-03-07T12:49:04.555Z,1.47
2023-03-07T12:51:50.824Z,1.52
2023-03-07T12:54:34.108Z,1.57
2023-03-07T12:57:22.503Z,1.71
2023-03-07T12:59:51.551Z,1.59
2023-03-07T13:02:28.833Z,1.71
2023-03-07T13:04:57.904Z,1.71
2023-03-07T13:07:26.649Z,1.59
2023-03-07T13:09:57.254Z,1.66
2023-03-07T13:12:32.803Z,2.01
2023-03-07T13:15:25.854Z,2.35
2023-03-07T13:17:58.732Z,2.35
2023-03-07T13:20:28.976Z,2.23
2023-03-07T13:22:59.564Z,2.47
2023-03-07T13:25:27.660Z,2.36
2023-03-07T13:28:00.256Z,2.26
2023-03-07T13:30:31.344Z,2.19
2023-03-07T13:33:27.054Z,2.14
2023-03-07T13:35:56.325Z,2.74
2023-03-07T13:38:23.795Z,2.63
2023-03-07T13:40:59.123Z,2.81
2023-03-07T13:43:28.259Z,2.97
2023-03-07T13:45:59.431Z,2.68
2023-03-07T13:48:26.853Z,2.81
2023-03-07T13:50:56.836Z,2.37
2023-03-07T13:53:33.415Z,2.31
2023-03-07T13:56:15.441Z,2.40
2023-03-07T13:59:20.421Z,2.52
2023-03-07T14:02:04.292Z,2.70
2023-03-07T14:04:45.559Z,2.66
2023-03-07T14:07:21.498Z,2.53
2023-03-07T14:09:55.962Z,2.75
2023-03-07T14:12:55.632Z,2.60
2023-03-07T14:15:29.278Z,2.62
2023-03-07T14:18:20.840Z,2.54
2023-03-07T14:21:00.987Z,2.79
2023-03-07T14:23:34.967Z,2.51
2023-03-07T14:26:16.618Z,2.57
2023-03-07T14:28:57.372Z,2.71
2023-03-07T14:31:40.173Z,2.53
2023-03-07T14:34:29.345Z,2.58
2023-03-07T14:37:01.129Z,2.50
2023-03-07T14:40:00.702Z,2.63
2023-03-07T14:42:42.721Z,2.66
2023-03-07T14:45:19.112Z,2.62
2023-03-07T14:48:24.493Z,2.61
2023-03-07T14:50:52.535Z,2.65
2023-03-07T14:53:26.565Z,2.65
2023-03-07T14:55:55.917Z,2.54
2023-03-07T14:58:27.305Z,2.68
2023-03-07T15:01:06.209Z,2.52
2023-03-07T15:03:34.224Z,2.69
2023-03-07T15:06:03.406Z,2.77
2023-03-07T15:08:35.327Z,2.64
2023-03-07T15:11:08.261Z,2.70
2023-03-07T15:13:45.716Z,2.69
2023-03-07T15:16:43.277Z,2.61
2023-03-07T15:19:21.747Z,2.70
2023-03-07T15:21:55.125Z,2.71
2023-03-07T15:24:29.525Z,2.79
2023-03-07T15:26:58.282Z,2.58
2023-03-07T15:29:28.783Z,2.81
2023-03-07T15:32:00.039Z,2.74
2023-03-07T15:34:33.711Z,2.81
2023-03-07T15:37:27.349Z,2.88
2023-03-07T15:40:21.446Z,2.68
2023-03-07T15:42:50.144Z,2.75
2023-03-07T15:45:38.834Z,2.69
2023-03-07T15:48:29.736Z,2.67
2023-03-07T15:51:00.706Z,2.59
2023-03-07T15:53:40.202Z,2.58
2023-03-07T15:56:22.757Z,2.57
2023-03-07T15:58:51.082Z,2.53
2023-03-07T16:01:24.271Z,2.63
2023-03-07T16:04:14.804Z,2.50
2023-03-07T16:06:44.794Z,2.51
2023-03-07T16:09:17.580Z,2.40
2023-03-07T16:11:46.329Z,2.36
2023-03-07T16:14:26.377Z,2.40
2023-03-07T16:16:56.124Z,2.65
2023-03-07T16:19:23.420Z,2.58
2023-03-07T16:21:51.699Z,2.39
2023-03-07T16:24:19.107Z,2.45
2023-03-07T16:26:47.900Z,2.45
2023-03-07T16:29:21.971Z,2.48
2023-03-07T16:31:49.751Z,2.43
2023-03-07T16:34:19.771Z,2.27
2023-03-07T16:36:48.283Z,2.39
2023-03-07T16:39:15.645Z,2.19
2023-03-07T16:41:46.123Z,2.26
2023-03-07T16:44:22.239Z,2.06
2023-03-07T16:46:56.740Z,2.06
2023-03-07T16:49:23.977Z,2.07
2023-03-07T16:52:04.663Z,1.88
2023-03-07T16:54:32.818Z,1.94
2023-03-07T16:57:01.867Z,1.85
2023-03-07T16:59:37.459Z,1.78
2023-03-07T17:02:19.688Z,1.83
2023-03-07T17:04:47.221Z,1.74
2023-03-07T17:07:20.495Z,1.65
2023-03-07T17:09:48.468Z,1.71
2023-03-07T17:12:17.943Z,1.69
2023-03-07T17:14:45.410Z,1.10
2023-03-07T17:17:33.308Z,0.20
2023-03-07T17:20:00.613Z,0.27
2023-03-07T17:22:28.213Z,0.22
2023-03-07T17:24:55.549Z,0.13
2023-03-07T17:27:23.509Z,0.34
2023-03-07T17:29:54.586Z,0.28
2023-03-07T17:32:22.428Z,0.32
2023-03-07T17:34:49.665Z,0.39
2023-03-07T17:37:17.406Z,0.55
2023-03-07T17:39:45.796Z,0.71
2023-03-07T17:42:14.510Z,0.75
2023-03-07T17:44:41.885Z,0.77
2023-03-07T17:47:09.462Z,1.08
2023-03-07T17:49:38.182Z,0.86
2023-03-07T17:52:07.229Z,0.99
2023-03-07T17:54:35.233Z,1.04
2023-03-07T17:57:03.528Z,1.05
2023-03-07T17:59:32.769Z,1.06
2023-03-07T18:02:00.593Z,1.03
2023-03-07T18:04:31.395Z,1.11
2023-03-07T18:07:00.389Z,1.10
2023-03-07T18:09:27.733Z,1.15
2023-03-07T18:11:55.594Z,1.15
2023-03-07T18:14:23.643Z,1.19
2023-03-07T18:16:52.528Z,1.34
2023-03-07T18:19:26.761Z,1.28
2023-03-07T18:21:55.621Z,1.12
2023-03-07T18:24:32.153Z,1.39
2023-03-07T18:27:00.878Z,1.17
2023-03-07T18:29:29.237Z,1.22
2023-03-07T18:31:56.983Z,1.17
2023-03-07T18:34:25.195Z,1.14
2023-03-07T18:36:54.371Z,1.34
2023-03-07T18:39:24.033Z,1.19
2023-03-07T18:41:52.374Z,1.15
2023-03-07T18:44:20.188Z,1.21
2023-03-07T18:46:48.582Z,1.02
2023-03-07T18:49:16.544Z,1.18
2023-03-07T18:51:46.121Z,1.12
2023-03-07T18:54:14.120Z,1.22
2023-03-07T18:56:42.779Z,1.20
2023-03-07T18:59:10.343Z,0.93
2023-03-07T19:01:39.763Z,0.86
2023-03-07T19:04:08.228Z,0.95
2023-03-07T19:06:42.034Z,0.72
2023-03-07T19:09:15.829Z,0.80
2023-03-07T19:11:43.772Z,0.80
2023-03-07T19:14:11.627Z,0.79
2023-03-07T19:16:39.308Z,0.79
2023-03-07T19:19:06.567Z,0.83
2023-03-07T19:21:34.168Z,0.66
2023-03-07T19:24:04.523Z,0.70
2023-03-07T19:26:32.249Z,0.94
2023-03-07T19:28:59.777Z,0.90
2023-03-07T19:31:29.895Z,0.88
2023-03-07T19:33:57.749Z,0.81
2023-03-07T19:36:28.481Z,0.92
2023-03-07T19:38:59.192Z,1.01
2023-03-07T19:41:29.443Z,0.81
2023-03-07T19:43:57.904Z,0.82
2023-03-07T19:46:26.080Z,0.81
2023-03-07T19:48:54.179Z,0.95
2023-03-07T19:51:27.093Z,0.84
2023-03-07T19:53:57.311Z,0.84
2023-03-07T19:56:30.089Z,0.82
2023-03-07T19:59:00.327Z,0.78
2023-03-07T20:01:29.689Z,0.63
2023-03-07T20:03:57.451Z,0.69
2023-03-07T20:06:28.115Z,0.67
2023-03-07T20:08:57.131Z,0.80
2023-03-07T20:11:30.710Z,0.63
2023-03-07T20:14:01.056Z,0.57
2023-03-07T20:16:29.761Z,0.53
2023-03-07T20:19:01.309Z,0.50
2023-03-07T20:21:29.374Z,0.59
2023-03-07T20:24:00.716Z,0.55
2023-03-07T20:26:37.614Z,0.48
2023-03-07T20:29:09.725Z,0.37
2023-03-07T20:31:39.961Z,0.36
2023-03-07T20:34:08.426Z,0.38
2023-03-07T20:36:38.212Z,0.36
2023-03-07T20:39:10.306Z,0.43
2023-03-07T20:41:38.781Z,0.45
2023-03-07T20:44:09.225Z,0.44
2023-03-07T20:46:38.728Z,0.48
2023-03-07T20:49:07.244Z,0.46
2023-03-07T20:51:38.846Z,0.28
2023-03-07T20:54:14.770Z,0.41
2023-03-07T20:56:45.377Z,0.46
2023-03-07T20:59:16.722Z,0.46
2023-03-07T21:01:45.274Z,0.41
2023-03-07T21:04:17.686Z,0.34
2023-03-07T21:06:47.168Z,0.32
2023-03-07T21:09:16.971Z,0.29
2023-03-07T21:11:47.312Z,0.27
2023-03-07T21:14:16.413Z,0.30
2023-03-07T21:16:45.228Z,0.24
2023-03-07T21:19:13.422Z,0.27
2023-03-07T21:22:12.912Z,0.30
2023-03-07T21:24:40.418Z,0.28
2023-03-07T21:27:08.699Z,0.13
2023-03-07T21:29:36.100Z,0.15
2023-03-07T21:32:04.199Z,0.20
2023-03-07T21:34:32.101Z,0.18
2023-03-07T21:36:59.962Z,0.24
2023-03-07T21:39:34.994Z,0.22
2023-03-07T21:42:05.134Z,0.11
2023-03-07T21:44:33.865Z,0.15
2023-03-07T21:47:06.646Z,0.13
2023-03-07T21:49:38.075Z,0.11
2023-03-07T21:52:05.825Z,0.19
2023-03-07T21:54:34.654Z,0.11
2023-03-07T21:57:05.594Z,0.12
2023-03-07T21:59:33.490Z,0.07
2023-03-07T22:02:03.859Z,-0.03
2023-03-07T22:04:38.231Z,-0.02
2023-03-07T22:07:10.519Z,-0.04
2023-03-07T22:09:37.872Z,-0.10
2023-03-07T22:12:05.660Z,-0.02
2023-03-07T22:14:33.031Z,0.09
2023-03-07T22:17:00.568Z,-0.12
2023-03-07T22:19:28.219Z,-0.13
2023-03-07T22:21:55.852Z,-0.04
2023-03-07T22:24:38.807Z,-0.03
2023-03-07T22:27:09.492Z,-0.09
2023-03-07T22:29:36.592Z,-0.15
2023-03-07T22:32:04.602Z,-0.23
2023-03-07T22:34:31.952Z,-0.22
2023-03-07T22:36:59.599Z,-0.20
2023-03-07T22:39:30.778Z,-0.20
2023-03-07T22:42:36.498Z,-0.15
2023-03-07T22:45:04.402Z,-0.13
2023-03-07T22:47:31.507Z,-0.32
2023-03-07T22:49:58.931Z,-0.25
2023-03-07T22:52:26.025Z,-0.32
2023-03-07T22:54:56.200Z,-0.40
2023-03-07T22:57:23.074Z,-0.36
2023-03-07T22:59:50.554Z,-0.35
2023-03-07T23:02:17.604Z,-0.35
2023-03-07T23:04:45.075Z,-0.35
2023-03-07T23:07:12.102Z,-0.52
2023-03-07T23:09:39.338Z,-0.38
2023-03-07T23:12:06.886Z,-0.31
2023-03-07T23:14:34.190Z,-0.34
2023-03-07T23:17:01.216Z,-0.39
2023-03-07T23:19:30.601Z,-0.61
2023-03-07T23:21:58.596Z,-0.51
2023-03-07T23:24:26.058Z,-0.49
2023-03-07T23:26:53.102Z,-0.57
2023-03-07T23:29:20.373Z,-0.48
2023-03-07T23:31:47.466Z,-0.58
2023-03-07T23:34:20.058Z,-0.55
2023-03-07T23:36:47.540Z,-0.60
2023-03-07T23:39:16.644Z,-0.63
2023-03-07T23:41:43.798Z,-0.58
2023-03-07T23:44:11.726Z,-0.73
2023-03-07T23:46:38.945Z,-0.76
2023-03-07T23:49:06.279Z,-0.63
2023-03-07T23:51:33.904Z,-0.66
2023-03-07T23:54:01.223Z,-0.71
2023-03-07T23:56:28.356Z,-0.68
2023-03-07T23:58:55.677Z,-0.70
